LGKO/KGS METAR and TAF weather

Enter ICAO airport designator
Station Type Date Time Source
LGKO METAR 2019/08/22 19:50 UTC NOAA

LGKO 221950Z 36014KT CAVOK 28/20 Q1010


Station Type Date Time Source
LGKO Decoded METAR 2019/08/22 19:50 UTC NOAA

Station name not available
Aug 22, 2019 - 03:50 PM EDT / 2019.08.22 1950 UTC
Wind: from the N (360 degrees) at 16 MPH (14 KT):0
Visibility: greater than 7 mile(s):0
Temperature: 82 F (28 C)
Dew Point: 68 F (20 C)
Relative Humidity: 61%
Pressure (altimeter): 29.83 in. Hg (1010 hPa)
ob: LGKO 221950Z 36014KT CAVOK 28/20 Q1010
cycle: 20

Station Type Date Time Source
LGKO TAF 2019/08/22 18:12 UTC NOAA

TAF LGKO 221700Z 2218/2318 34015KT 9999 FEW025
TEMPO 2218/2221 35015G25KT

Example: see airport list